Aviation Digital Data Service (ADDS)

Output produced by METARs form (0242 UTC 24 July 2017)
found at http://www.aviationweather.gov/adds/metars/
 
TAF CYXX 232338Z 2400/2424 22010KT P6SM SCT040 
     FM240600 VRB03KT P6SM SKC 
     BECMG 2416/2418 24008KT RMK NXT FCST BY 240600Z
       
TAF CYAM 240138Z 2402/2414 04007G17KT P6SM BKN070 
     FM241000 03010G20KT P6SM FEW070 
     BECMG 2411/2413 36007KT RMK NXT FCST BY 240800Z
       
TAF CYAY 240138Z 2402/2414 27018G28KT P6SM BKN040 
     TEMPO 2402/2412 P6SM -SHRA BKN020 BKN040 
     FM241200 27020G35KT P6SM BKN040 RMK FCST BASED ON AUTO OBS. NXT FCST BY 240800Z
       
TAF CYBC 240141Z 2402/2414 VRB03KT P6SM SKC 
     BECMG 2412/2414 06006KT RMK FCST BASED ON AUTO OBS. NXT FCST BY 240800Z
       
TAF CYBG 232338Z 2400/2424 31008KT P6SM FEW060 
     BECMG 2400/2402 VRB03KT 
     FM241500 09008KT P6SM FEW060 RMK NXT FCST BY 240600Z
       
TAF CYBK 232338Z 2400/2412 32020G30KT P6SM SCT015 BKN040 
     TEMPO 2400/2403 BKN015 OVC040 
     FM240300 32015KT P6SM FEW040 
     BECMG 2404/2406 30010KT RMK NXT FCST BY 240600Z
       
TAF CYBL 240038Z 2401/2404 31010G20KT P6SM FEW030 RMK NXT FCST WILL BE ISSUED AT 241445Z
       
TAF CYBR 232338Z 2400/2412 22010KT P6SM FEW050 
     BECMG 2401/2403 16012KT SKC 
     FM241000 16012KT P6SM BKN120 RMK NXT FCST BY 240600Z
       
TAF CYBW 232343Z 2400/2404 30008KT P6SM SCT080 BKN120 
     BECMG 2402/2404 35015G30KT RMK FCST BASED ON AUTO OBS. NXT FCST WILL BE ISSUED AT 241145Z
       
TAF CYBX 240138Z 2402/2414 28012KT P6SM SCT020 BKN120 
     TEMPO 2402/2414 P6SM -SHRA OVC020 
     BECMG 2411/2413 29015G25KT RMK NXT FCST BY 240800Z
       
TAF AMD CYCB 240216Z 2402/2413 28012KT P6SM FEW015 SCT030 BKN120 
     TEMPO 2402/2413 FEW006 BKN030 RMK NXT FCST BY 240700Z
       
TAF CYCD 232338Z 2400/2404 02012KT P6SM FEW050 
     BECMG 2402/2404 30006KT RMK NXT FCST WILL BE ISSUED AT 241445Z
       
TAF CYCG 240038Z 2401/2404 18012KT P6SM SCT100 
     PROB30 2401/2404 VRB20G30KT 4SM TSRAGR BKN090CB RMK NXT FCST WILL BE ISSUED AT 241445Z
       
TAF CYCO 240038Z 2401/2413 23010G20KT P6SM SCT025 BKN050 OVC080 
     TEMPO 2401/2404 P6SM -SHRA BKN020 
     FM240400 24012KT P6SM SCT040 BKN120 
     FM240800 24008KT P6SM -RA SCT015 OVC040 
     TEMPO 2408/2413 4SM -SHRA BR SCT008 OVC015 RMK NXT FCST BY 240700Z
       
TAF CYCY 240038Z 2401/2413 12010KT P6SM BKN080 
     FM240400 14010KT 1SM BR BKN004 RMK FCST BASED ON AUTO OBS. NXT FCST BY 240700Z
       
TAF CYDA 232339Z 2400/2403 25008KT P6SM SCT060 RMK NXT FCST WILL BE ISSUED AT 241445Z
       
TAF CYDB 232339Z 2400/2412 11005KT P6SM FEW080 RMK NXT FCST BY 240600Z
       
TAF CYDF 240138Z 2402/2414 24012G22KT P6SM SCT040 
     FM241200 25018G28KT P6SM BKN025 RMK NXT FCST BY 240800Z
       
TAF CYDN 232338Z 2400/2412 24008KT P6SM FEW040 
     BECMG 2401/2403 16012KT SKC 
     FM240800 16012KT P6SM BKN120 RMK FCST BASED ON AUTO OBS. NXT FCST BY 240600Z
       
TAF CYDQ 240038Z 2401/2405 26015G25KT P6SM SCT040 
     TEMPO 2401/2405 P6SM -SHRA BKN040 RMK FCST BASED ON AUTO OBS. NXT FCST WILL BE ISSUED AT 241245Z
       
TAF CYEG 240238Z 2403/2424 35012G22KT P6SM -SHRA FEW007 BKN040 OVC090 
     TEMPO 2403/2404 4SM SHRA VCTS BR BKN012 OVC040 
     FM240400 35020G35KT P6SM SCT012 BKN080 
     TEMPO 2404/2408 4SM -SHRA BR BKN012 BKN080 
     BECMG 2405/2407 29010G20KT 
     FM240800 29010G20KT P6SM SCT012 OVC060 
     TEMPO 2408/2414 P6SM -SHRA BKN012 OVC060 
     FM241400 30015G30KT P6SM BKN015 
     FM241700 30018G28KT P6SM BKN025 RMK NXT FCST BY 240600Z
       
TAF AMD CYEK 240135Z 2401/2412 34015G25KT P6SM BKN070 
     FM240400 36010KT P6SM BKN040 RMK NXT FCST BY 240600Z
       
TAF CYEV 240038Z 2401/2413 19012KT P6SM SCT040 BKN100 
     TEMPO 2401/2409 P6SM -SHRA SCT020 BKN040 
     BECMG 2402/2404 29010KT 
     FM240900 32008KT P6SM -RA SCT020 BKN040 
     TEMPO 2409/2411 5SM -SHRA BR SCT006 BKN020 
     FM241100 VRB03KT P6SM -RA SCT006 BKN020 OVC040 
     TEMPO 2411/2413 4SM -SHRA BR BKN006 RMK NXT FCST BY 240700Z
       
TAF CYFB 232338Z 2400/2424 14005KT P6SM FEW030 BKN100 
     PROB30 2406/2410 1SM BR BKN005 RMK NXT FCST BY 240600Z
       
TAF CYFC 232338Z 2400/2412 30006KT P6SM SKC 
     BECMG 2400/2402 VRB03KT RMK FCST BASED ON AUTO OBS. NXT FCST BY 240600Z
       
TAF CYFS 232338Z 2400/2412 VRB03KT P6SM FEW150 
     FM240400 VRB03KT P6SM SCT080 
     TEMPO 2404/2408 P6SM -SHRA BKN080 RMK NXT FCST BY 240600Z
       
TAF CYGK 231939Z 2320/2403 04012G22KT P6SM BKN220 
     BECMG 2320/2322 04012KT 
     FM240100 06012KT P6SM BKN030 OVC060 
     TEMPO 2401/2403 P6SM -SHRA RMK NXT FCST WILL BE ISSUED AT 241145Z
       
TAF CYGL 232338Z 2400/2424 34005KT P6SM SCT060 
     BECMG 2404/2406 10005KT 
     FM241500 24007KT P6SM FEW100 RMK NXT FCST BY 240600Z
       
TAF CYGP 240141Z 2402/2414 30007KT P6SM FEW040 RMK NXT FCST BY 240800Z
       
TAF CYGQ 240138Z 2402/2414 06005KT P6SM FEW060 RMK NXT FCST BY 240800Z
       
TAF CYGV 240141Z 2402/2414 27006KT P6SM SCT250 
     FM240600 30010KT P6SM SCT040 RMK FCST BASED ON AUTO OBS. NXT FCST BY 240800Z
       
TAF CYGW 232338Z 2400/2412 32006KT P6SM SKC 
     BECMG 2402/2404 12005KT RMK FCST BASED ON AUTO OBS. NXT FCST BY 240600Z
       
TAF CYGX 240042Z 2401/2413 25008KT P6SM FEW015 SCT050 
     TEMPO 2401/2407 BKN050 
     FM240700 24010KT P6SM SCT070 
     TEMPO 2407/2413 P6SM -SHRA BKN070 RMK NXT FCST BY 240700Z
       
TAF CYHD 240138Z 2402/2414 21006KT P6SM FEW230 RMK FCST BASED ON AUTO OBS. NXT FCST BY 240800Z
       
TAF CYHK 232338Z 2400/2412 32015KT 4SM -RA BR OVC005 
     TEMPO 2400/2403 P6SM NSW SCT005 OVC030 
     FM240300 30012KT P6SM SCT015 BKN030 
     TEMPO 2403/2412 BKN015 OVC030 RMK NXT FCST BY 240600Z
       
TAF AMD CYHM 240114Z 2401/2424 03012KT P6SM SCT008 BKN030 
     TEMPO 2401/2402 P6SM -SHRA OVC008 
     FM240200 05010KT 6SM -SHRA BR OVC008 
     TEMPO 2402/2404 P6SM NSW SCT008 OVC015 
     FM240400 04010KT 4SM BR BKN006 
     PROB40 2404/2413 2SM BR OVC005 
     FM241600 02008KT P6SM OVC012 
     FM241900 02012KT P6SM OVC025 RMK NXT FCST BY 240600Z
       
TAF CYHU 232338Z 2400/2424 06005KT P6SM FEW150 
     FM240900 04010G20KT P6SM BKN080 
     TEMPO 2412/2414 P6SM -SHRA OVC030 
     FM241400 07012G22KT P6SM -SHRA BKN010 OVC025 
     FM241600 08012G22KT 5SM -SHRA BR OVC015 
     FM242100 08015G25KT P6SM -SHRA FEW010 OVC040 RMK FCST BASED ON AUTO OBS. NXT FCST BY 240600Z
       
TAF CYHY 232338Z 2400/2412 07008KT P6SM FEW060 SCT120 BKN220 
     BECMG 2401/2403 VRB03KT SKC RMK NXT FCST BY 240600Z
       
TAF CYHZ 240238Z 2403/2424 VRB03KT P6SM SKC 
     FM241700 VRB03KT P6SM FEW050 SCT160 BKN220 
     FM242100 18008KT P6SM FEW050 OVC160 
     FM242300 19006KT P6SM FEW050 OVC100 RMK NXT FCST BY 240600Z
       
TAF CYIO 240038Z 2401/2413 05005KT P6SM BKN060 RMK FCST BASED ON AUTO OBS. NXT FCST BY 240700Z
       
TAF CYIV 240042Z 2401/2413 19008KT P6SM SCT040 BKN120 RMK NXT FCST BY 240700Z
       
TAF CYJT 232338Z 2400/2424 27015G25KT P6SM SCT025 
     BECMG 2401/2403 27015KT 
     FM241200 28015G25KT P6SM BKN025 
     BECMG 2420/2422 28012KT SCT025 RMK NXT FCST BY 240600Z
       
TAF CYKA 240038Z 2401/2413 32015G30KT P6SM SCT100 
     TEMPO 2401/2413 BKN100 RMK NXT FCST BY 240700Z
       
TAF CYKF 240138Z 2402/2414 09010KT P6SM BKN030 
     TEMPO 2402/2404 5SM BR OVC008 
     FM240400 06008KT P6SM OVC012 
     TEMPO 2404/2414 5SM -RA -DZ BR OVC008 
     PROB30 2406/2414 2SM BR BKN005 RMK FCST BASED ON AUTO OBS. NXT FCST BY 240800Z
       
TAF CYKL 240138Z 2402/2414 33012G22KT P6SM OVC015 
     TEMPO 2402/2414 OVC025 RMK FCST BASED ON AUTO OBS. NXT FCST BY 240800Z
       
TAF AMD CYKZ 240126Z 2401/2412 06008KT P6SM BKN030 
     TEMPO 2401/2403 4SM -SHRA BR OVC020 
     PROB40 2401/2403 VRB15G25KT 1SM +TSRA BR BKN015 OVC050CB 
     FM240300 05008KT P6SM FEW015 BKN030 
     TEMPO 2403/2408 6SM -SHRA BR OVC015 
     FM240800 03008KT 5SM -SHRA BR OVC012 
     PROB30 2408/2412 2SM TSRA BR BKN008 OVC015CB RMK NXT FCST BY 240600Z
       
TAF AMD CYLL 240224Z 2402/2412 04008KT P6SM -SHRA BKN100 
     TEMPO 2402/2406 VRB20G30KT 5SM TSRA BKN050CB OVC100 
     BECMG 2404/2406 30025G40KT 
     FM240600 30025G40KT P6SM -SHRA SCT012 BKN040 OVC100 
     TEMPO 2406/2412 4SM SHRA BR SCT006 OVC012 
     PROB30 2406/2409 VRB25G40KT 2SM TSRAGR BKN006 OVC012CB RMK NXT FCST BY 240600Z
       
TAF CYLW 240038Z 2401/2413 22015G25KT P6SM FEW070 
     BECMG 2402/2404 35015KT RMK FCST BASED ON AUTO OBS. NXT FCST BY 240700Z
       
TAF CYMA 232339Z 2400/2412 25012KT P6SM BKN100 RMK NXT FCST BY 240600Z
       
TAF CYMH 231939Z 2320/2403 28012G22KT P6SM BKN040 
     TEMPO 2320/2403 5SM -SHRA BR BKN020 RMK FCST BASED ON AUTO OBS. NXT FCST WILL BE ISSUED AT 240845Z
       
TAF CYMJ 232330Z 2400/2412 22012KT P6SM FEW110 
     BECMG 2400/2402 VRB03KT 
     FM240900 18010KT P6SM SKC 
     BECMG 2410/2412 23015KT RMK NXT FCST BY 240600Z
       
TAF CYMM 240038Z 2401/2413 27008KT P6SM FEW080 BKN150 
     FM241200 34012G22KT P6SM FEW012 SCT040 OVC120 RMK FCST BASED ON AUTO OBS. NXT FCST BY 240700Z
       
TAF CYMO 232340Z 2400/2412 04007KT P6SM FEW020 
     FM240200 05005KT 6SM BR FEW003 
     TEMPO 2402/2405 11/2SM BR BKN003 
     FM240500 05005KT 11/2SM BR OVC003 
     TEMPO 2405/2410 6SM BR BKN006 
     BECMG 2408/2410 15006KT 
     FM241000 15006KT P6SM FEW003 RMK FCST BASED ON AUTO OBS. NXT FCST BY 240600Z
       
TAF CYMX 232338Z 2400/2424 VRB03KT P6SM SCT150 BKN240 
     FM240900 05010G20KT P6SM BKN100 
     PROB30 2409/2412 WS010/07030KT 
     FM241500 07012G22KT P6SM -SHRA OVC025 
     FM241700 07012G22KT 5SM -SHRA BR OVC010 
     PROB40 2417/2421 OVC007 
     FM242100 09015G25KT 6SM -SHRA BR BKN020 OVC070 RMK NXT FCST BY 240600Z
       
TAF CYNA 240141Z 2402/2414 28007KT P6SM SKC 
     FM240600 30012KT P6SM SCT040 RMK FCST BASED ON AUTO OBS. NXT FCST BY 240800Z
       
TAF CYNE 240042Z 2401/2413 20012G22KT P6SM SCT050 SCT120 
     FM240500 20010G20KT P6SM SCT080 
     TEMPO 2405/2409 P6SM VCSH BKN080 
     FM240900 20008KT P6SM FEW120 RMK FCST BASED ON AUTO OBS. NXT FCST BY 240700Z
       
TAF CYOD 232338Z 2400/2424 VRB03KT P6SM SCT030 SCT120 
     BECMG 2401/2403 33012KT 
     FM240300 33012KT P6SM -SHRA SCT010 BKN030 OVC060 
     PROB30 2405/2408 VRB20G35KT 2SM TSRA BKN010 OVC030CB 
     FM240800 33015G25KT 3SM SHRA BR BKN010 OVC030 
     PROB30 2408/2417 VRB20G35KT 1SM +TSRA BR BKN008 OVC030CB 
     FM241700 31020G32KT 3SM SHRA BR BKN010 OVC030 
     PROB30 2417/2424 VRB30G45KT 1SM +TSRA BR BKN008 OVC030CB RMK NXT FCST BY 240600Z
       
TAF CYOJ 240038Z 2401/2413 32008KT P6SM SCT008 BKN015 BKN120 
     TEMPO 2401/2406 5SM -SHRA BR BKN008 BKN015 BKN120 
     FM240600 34005KT P6SM SCT012 OVC040 
     TEMPO 2406/2409 5SM -SHRA BR BKN012 OVC040 
     FM240900 34005KT P6SM SCT060 RMK NXT FCST BY 240700Z
       
TAF CYOW 240238Z 2403/2424 07007KT P6SM BKN100 
     TEMPO 2403/2409 P6SM -SHRA 
     FM240900 06010G20KT P6SM -SHRA OVC050 
     FM241200 07012G22KT P6SM -SHRA OVC040 
     FM241400 07012G22KT 6SM -SHRA BR OVC020 
     FM241700 07012G22KT 3SM -SHRA BR OVC006 
     FM242100 07015G25KT 6SM -SHRA BR OVC010 RMK NXT FCST BY 240600Z
       
TAF CYPA 240042Z 2401/2413 18010KT P6SM SCT080 
     PROB30 2401/2404 2SM TSRA BKN030CB 
     FM240400 10015KT P6SM BKN080 
     TEMPO 2404/2409 P6SM VCSH 
     PROB30 2404/2409 2SM TSRA BKN030CB 
     FM240900 10015G25KT P6SM BKN080 
     TEMPO 2409/2413 5SM -SHRA BR BKN020 RMK NXT FCST BY 240700Z
       
TAF AMD CYPE 240147Z 2401/2413 26012KT P6SM FEW050 BKN180 
     TEMPO 2401/2406 5SM TSRA BKN050CB BKN150 
     FM240600 26006KT P6SM BKN040 
     TEMPO 2406/2410 P6SM -SHRA 
     BECMG 2406/2408 32010KT 
     FM241000 32010KT P6SM SCT015 BKN060 
     TEMPO 2410/2413 P6SM -SHRA BKN015 OVC060 RMK NXT FCST BY 240700Z
       
TAF CYPH 232338Z 2400/2412 24010KT P6SM FEW140 
     FM240400 24007KT 6SM BR FEW003 
     PROB30 2404/2408 1SM BR BKN003 
     FM240800 19012KT 6SM BR FEW003 SCT120 
     PROB40 2408/2412 1SM BR BKN003 RMK FCST BASED ON AUTO OBS. NXT FCST BY 240600Z
       
TAF CYPR 240038Z 2401/2413 25005KT P6SM BKN060 
     TEMPO 2401/2406 SCT060 
     FM240600 28006KT P6SM SCT020 BKN040 
     TEMPO 2406/2413 BKN020 
     BECMG 2407/2409 09005KT RMK FCST BASED ON AUTO OBS. NXT FCST BY 240700Z
       
TAF CYPX 232338Z 2400/2412 24010KT P6SM SCT100 RMK FCST BASED ON AUTO OBS. NXT FCST BY 240600Z
       
TAF CYPY 232338Z 2400/2406 33008KT P6SM SCT020 BKN140 
     TEMPO 2400/2406 P6SM -SHRA BKN020 
     PROB40 2400/2404 3SM TSRA BKN015CB RMK FCST BASED ON AUTO OBS. NXT FCST WILL BE ISSUED AT 241145Z
       
TAF CYQB 232338Z 2400/2424 23007KT P6SM FEW070 
     FM240100 VRB03KT P6SM FEW070 
     BECMG 2401/2403 03008KT 
     BECMG 2409/2411 07012G22KT 
     FM241600 07012KT P6SM SCT210 
     BECMG 2419/2421 06010G20KT RMK NXT FCST BY 240600Z
       
TAF AMD CYQD 240045Z 2401/2413 24005KT P6SM VCSH BKN090 
     TEMPO 2401/2403 VRB20G30KT 4SM TSRA BKN040CB 
     FM240400 17010KT P6SM SCT090 
     TEMPO 2404/2413 BKN090 RMK NXT FCST BY 240700Z
       
TAF AMD CYQF 240125Z 2401/2412 02005KT P6SM SCT030 BKN120 
     TEMPO 2401/2403 VRB15G30KT 3SM TSRA BKN030CB BKN120 
     BECMG 2401/2403 34020G35KT 
     FM240300 34020G35KT P6SM -SHRA SCT012 OVC060 
     TEMPO 2403/2407 4SM -SHRA BR BKN012 OVC060 
     PROB30 2403/2407 VRB20G35KT 4SM TSRA SCT006 OVC012 
     FM240700 29010G25KT P6SM FEW060 SCT120 RMK NXT FCST BY 240600Z
       
TAF CYQG 232338Z 2400/2424 VRB03KT P6SM BKN040 OVC280 
     TEMPO 2400/2401 P6SM -SHRA BKN020 
     PROB30 2400/2401 VRB15G25KT 1SM +TSRA BR OVC020CB 
     FM240200 VRB03KT P6SM FEW020 BKN040 
     PROB30 2406/2410 2SM BR BKN005 
     FM241000 32006KT 5SM BR BKN006 
     PROB40 2410/2413 2SM BR BKN005 
     FM241500 34008KT P6SM OVC012 
     FM241700 34010KT P6SM BKN025 
     BECMG 2419/2421 02012KT RMK NXT FCST BY 240600Z
       
TAF CYQH 232339Z 2400/2412 29012KT P6SM SCT060 
     TEMPO 2400/2402 P6SM -SHRA BKN060 RMK NXT FCST BY 240600Z
       
TAF CYQI 232338Z 2400/2412 32010KT P6SM FEW080 
     BECMG 2404/2406 VRB03KT RMK NXT FCST BY 240600Z
       
TAF CYQK 240138Z 2402/2414 21008KT P6SM FEW040 FEW240 RMK NXT FCST BY 240800Z
       
TAF CYQL 232343Z 2400/2412 25015G25KT P6SM SCT100 SCT300 
     BECMG 2407/2409 34015G30KT 
     FM240900 34015G30KT P6SM BKN060 
     PROB30 2409/2411 VRB20G35KT 5SM TSRA SCT020 BKN060CB 
     FM241100 32010KT P6SM SCT060 RMK NXT FCST BY 240600Z
       
TAF CYQM 232338Z 2400/2424 05006KT P6SM FEW080 BKN250 
     BECMG 2406/2408 VRB03KT 
     FM241700 07008KT P6SM FEW050 SCT240 
     FM242300 09006KT P6SM FEW060 BKN180 RMK NXT FCST BY 240600Z
       
TAF CYQQ 232339Z 2400/2424 34012G22KT P6SM FEW040 
     BECMG 2405/2407 34010KT 
     FM241800 36008KT P6SM FEW040 SCT200 RMK NXT FCST BY 240600Z
       
TAF CYQR 232338Z 2400/2424 14012G22KT P6SM SCT100 SCT300 
     FM240300 14012KT P6SM FEW100 
     FM241000 14012KT WS006/14035KT P6SM SCT060 
     BECMG 2412/2414 24015G25KT 
     BECMG 2414/2416 29020G30KT 
     FM241600 29020G30KT P6SM SCT015 SCT040 
     FM242000 29025G35KT P6SM SKC RMK NXT FCST BY 240600Z
       
TAF CYQT 240138Z 2402/2414 20005KT P6SM FEW060 RMK NXT FCST BY 240800Z
       
TAF AMD CYQU 240048Z 2401/2413 01006KT P6SM SCT060 BKN120 OVC180 
     TEMPO 2401/2406 P6SM -SHRA VCTS BKN060CB BKN120 OVC180 
     BECMG 2401/2402 28015G25KT 
     FM240600 28012G22KT P6SM -SHRA SCT012 BKN040 OVC100 
     TEMPO 2406/2413 5SM -SHRA BR SCT006 BKN012 OVC040 RMK NXT FCST BY 240700Z
       
TAF CYQV 232338Z 2400/2406 16010KT P6SM FEW050 
     FM240500 16010KT P6SM SCT080 
     TEMPO 2405/2406 P6SM VCSH BKN080 RMK FCST BASED ON AUTO OBS. NXT FCST WILL BE ISSUED AT 241145Z
       
TAF CYQW 232338Z 2400/2412 12008KT P6SM FEW080 
     PROB30 2401/2404 2SM TSRA BKN030CB 
     FM240400 08012KT P6SM FEW080 
     PROB30 2404/2408 2SM TSRA BKN030CB 
     FM240800 VRB03KT P6SM SCT040 
     TEMPO 2408/2410 BKN040 
     BECMG 2408/2410 28025G35KT 
     FM241000 28025G35KT P6SM BKN015 RMK FCST BASED ON AUTO OBS. NXT FCST BY 240600Z
       
TAF CYQX 232338Z 2400/2424 28010G20KT P6SM SCT050 
     FM241400 28015G25KT P6SM BKN050 RMK NXT FCST BY 240600Z
       
TAF CYQY 232338Z 2400/2412 VRB03KT P6SM SKC 
     BECMG 2402/2404 26006KT RMK NXT FCST BY 240600Z
       
TAF CYQZ 240038Z 2401/2406 18005KT P6SM SCT060 BKN100 
     FM240200 33005KT P6SM SCT060 RMK FCST BASED ON AUTO OBS. NXT FCST WILL BE ISSUED AT 241145Z
       
TAF AMD CYRB 240115Z 2401/2424 12012KT 4SM -RA BR SCT006 BKN012 OVC030 
     TEMPO 2401/2414 11/2SM -RA BR BKN006 OVC012 
     BECMG 2404/2406 11006KT 
     FM241400 11015KT 2SM -RA BR SCT004 BKN006 OVC020 RMK NXT FCST BY 240600Z
       
TAF CYRQ 240138Z 2402/2414 VRB03KT P6SM FEW200 
     TEMPO 2402/2404 1SM HZ 
     FM240800 05010G20KT P6SM BKN150 RMK FCST BASED ON AUTO OBS. NXT FCST BY 240800Z
       
TAF AMD CYRT 240208Z 2402/2412 33015G25KT P6SM SCT015 BKN080 
     TEMPO 2402/2404 P6SM -SHRA BKN008 OVC080 
     FM240400 33012KT P6SM BKN030 
     TEMPO 2404/2409 BKN020 
     FM240900 34012KT P6SM SCT030 RMK NXT FCST BY 240600Z
       
TAF CYSB 240138Z 2402/2414 03007KT P6SM -SHRA OVC030 
     TEMPO 2402/2408 4SM -RA BR OVC020 
     FM240800 03010G20KT P6SM BKN070 RMK NXT FCST BY 240800Z
       
TAF CYSC 232338Z 2400/2403 35005KT P6SM SKC RMK FCST BASED ON AUTO OBS. NXT FCST WILL BE ISSUED AT 241045Z
       
TAF AMD CYSF 240215Z 2402/2412 05006KT P6SM FEW020 SCT100 
     TEMPO 2402/2412 P6SM -SHRA SCT020 BKN080 RMK FCST BASED ON AUTO OBS. NXT FCST BY 240600Z
       
TAF CYSJ 232338Z 2400/2412 22006KT P6SM FEW080 
     BECMG 2400/2402 VRB03KT RMK NXT FCST BY 240600Z
       
TAF CYSM 232338Z 2400/2412 29008KT P6SM SCT060 BKN100 
     TEMPO 2400/2402 P6SM -SHRA FEW020 BKN060 
     FM240200 30005KT P6SM BKN080 RMK NXT FCST BY 240600Z
       
TAF CYTE 240038Z 2401/2413 12010KT P6SM SCT110 RMK FCST BASED ON AUTO OBS. NXT FCST BY 240700Z
       
TAF CYTH 240042Z 2401/2413 22010KT P6SM BKN080 
     TEMPO 2401/2403 VRB20G30KT 4SM TSRA BKN040CB 
     FM240900 18005KT P6SM SKC 
     FM241100 VRB03KT 1/2SM FG VV001 
     TEMPO 2411/2413 3SM BR SKC RMK NXT FCST BY 240700Z
       
TAF CYTL 240138Z 2402/2414 16008KT P6SM SCT040 BKN120 RMK FCST BASED ON AUTO OBS. NXT FCST BY 240800Z
       
TAF CYTR 232331Z 2400/2424 05008G18KT P6SM FEW060 BKN100 OVC220 
     FM240200 03010KT P6SM BKN050 
     TEMPO 2402/2412 P6SM -SHRA SCT020 OVC050 
     FM241200 02010G20KT 4SM -SHRA BR OVC015 
     PROB30 2412/2418 VRB15G25KT 2SM TSRA BR OVC012CB 
     FM241800 34010KT P6SM -SHRA SCT020 OVC040 RMK NXT FCST BY 240600Z
       
TAF CYTS 240138Z 2402/2414 01005KT P6SM BKN200 
     FM240600 VRB03KT P6SM FEW200 RMK NXT FCST BY 240800Z
       
TAF CYTZ 240138Z 2402/2502 06012KT P6SM SCT015 OVC030 
     TEMPO 2402/2409 6SM -SHRA BR OVC015 
     FM240900 04012KT P6SM -SHRA OVC012 
     PROB30 2409/2413 2SM TSRA BR BKN008 OVC012CB 
     FM241300 01010KT 6SM BR OVC008 
     BECMG 2413/2415 P6SM NSW OVC015 
     FM241800 34012KT P6SM -SHRA BKN020 
     FM242000 36012KT P6SM BKN025 RMK FCST BASED ON AUTO OBS. NXT FCST BY 240800Z
       
TAF CYUB 240038Z 2401/2405 05007KT P6SM SCT030 BKN080 
     TEMPO 2401/2405 P6SM -SHRA BKN020 RMK NXT FCST WILL BE ISSUED AT 241445Z
       
TAF CYUL 240238Z 2403/2424 09007KT P6SM BKN120 
     BECMG 2405/2407 08010KT 
     FM240900 05010G20KT P6SM BKN080 
     TEMPO 2412/2414 P6SM -SHRA OVC030 
     FM241400 07012G22KT 6SM -SHRA BR BKN012 OVC025 
     PROB30 2415/2417 BKN008 OVC025 
     FM241700 08012G22KT 5SM -SHRA BR OVC008 
     FM242100 08015G25KT P6SM -SHRA SCT015 OVC040 RMK NXT FCST BY 240600Z
       
TAF CYUX 240038Z 2401/2413 16017KT P6SM FEW080 SCT210 
     FM241200 15017KT P6SM BKN080 RMK NXT FCST BY 240700Z
       
TAF CYUY 232338Z 2400/2412 06006KT P6SM FEW030 BKN170 
     FM240300 VRB03KT P6SM SCT150 
     BECMG 2409/2411 07007KT RMK NXT FCST BY 240600Z
       
TAF CYVC 240042Z 2401/2413 25012KT P6SM FEW060 
     BECMG 2403/2405 16010KT 
     FM240600 11008KT P6SM BKN040 
     TEMPO 2406/2409 P6SM VCSH 
     FM240900 08012G22KT P6SM -SHRA BKN020 
     TEMPO 2409/2413 P6SM NSW BKN030 RMK NXT FCST BY 240700Z
       
TAF CYVM 240038Z 2401/2413 36005KT P6SM SCT140 RMK FCST BASED ON AUTO OBS. NXT FCST BY 240700Z
       
TAF CYVO 232338Z 2400/2412 03005KT P6SM FEW040 BKN160 
     FM240300 VRB03KT P6SM SCT150 
     BECMG 2409/2411 06007KT RMK NXT FCST BY 240600Z
       
TAF AMD CYVP 240150Z 2401/2412 03006KT 11/2SM BR BKN003 
     TEMPO 2401/2404 6SM BR SCT003 BKN240 
     BECMG 2402/2404 33005KT 
     FM240400 33005KT 6SM BR FEW005 SCT040 
     BECMG 2406/2408 25004KT 
     FM240800 25004KT P6SM BKN050 RMK NXT FCST BY 240600Z
       
TAF CYVQ 232338Z 2400/2412 VRB03KT P6SM SCT040 BKN090 
     TEMPO 2400/2412 P6SM -SHRA BKN040 
     BECMG 2405/2407 28008KT RMK NXT FCST BY 240600Z
       
TAF CYVR 240238Z 2403/2506 27015G25KT P6SM SKC 
     FM240600 29012KT P6SM SKC RMK NXT FCST BY 240600Z
       
TAF CYVT 240038Z 2401/2404 32006KT P6SM FEW060 FEW140 SCT250 RMK NXT FCST WILL BE ISSUED AT 241345Z
       
TAF CYWA 232331Z 2400/2412 13006KT P6SM SCT020 BKN080 
     TEMPO 2400/2401 P6SM -SHRA BKN020 OVC080 
     FM240100 VRB03KT P6SM FEW050 BKN120 
     FM241100 05005KT P6SM -SHRA SCT020 OVC050 RMK FCST BASED ON AUTO OBS. NXT FCST BY 240600Z
       
TAF CYWG 232338Z 2400/2424 20008KT P6SM SCT040 
     FM240900 18008KT P6SM FEW060 
     FM241400 20012KT P6SM SCT050 BKN120 
     BECMG 2416/2418 20015G25KT RMK NXT FCST BY 240600Z
       
TAF CYWH 232338Z 2400/2404 21007KT P6SM FEW030 
     BECMG 2402/2404 VRB03KT RMK NXT FCST WILL BE ISSUED AT 241415Z
       
TAF CYWK 240138Z 2402/2414 32010KT P6SM BKN030 
     TEMPO 2402/2414 BKN020 
     BECMG 2412/2414 30012G22KT RMK NXT FCST BY 240800Z
       
TAF CYXC 240038Z 2401/2413 21012G22KT P6SM SCT080 
     TEMPO 2401/2405 P6SM -SHRA BKN080 
     PROB30 2401/2405 VRB25G35KT 5SM TSRAGR BKN070CB RMK NXT FCST BY 240700Z
       
TAF CYXE 232338Z 2400/2424 26008KT P6SM FEW050 
     BECMG 2400/2402 18010KT 
     FM240400 23010KT P6SM SCT080 
     TEMPO 2404/2412 P6SM VCSH BKN080 
     BECMG 2410/2412 27025G40KT 
     FM241200 27025G35KT P6SM BKN012 
     FM241700 27025G35KT P6SM SCT025 
     BECMG 2420/2422 25015G25KT RMK NXT FCST BY 240600Z
       
TAF CYXH 232343Z 2400/2412 24008KT P6SM FEW100 
     BECMG 2407/2409 32015G35KT BKN020 
     FM240900 32015G35KT P6SM BKN020 
     TEMPO 2409/2412 SCT020 
     BECMG 2410/2412 30012G25KT RMK NXT FCST BY 240600Z
       
TAF CYXJ 240038Z 2401/2413 25012KT P6SM SCT020 OVC040 
     TEMPO 2401/2406 P6SM -SHRA BKN020 OVC040 
     FM240900 32008KT P6SM FEW060 
     PROB30 2410/2413 1/2SM FG VV003 RMK NXT FCST BY 240700Z
       
TAF CYXL 240138Z 2402/2414 25006KT P6SM FEW060 BKN230 RMK NXT FCST BY 240800Z
       
TAF CYXS 240038Z 2401/2413 30008KT P6SM SCT050 BKN080 RMK FCST BASED ON AUTO OBS. NXT FCST BY 240700Z
       
TAF CYXT 240038Z 2401/2413 18005KT P6SM SCT030 BKN050 
     BECMG 2407/2409 01005KT RMK NXT FCST BY 240700Z
       
TAF AMD CYXU 240205Z 2402/2424 05006KT P6SM SCT020 BKN130 
     TEMPO 2402/2404 P6SM -SHRA OVC020 
     FM240400 06008KT 6SM BR SCT008 BKN012 
     TEMPO 2404/2406 4SM BR BKN006 
     FM240600 06005KT 6SM BR BKN006 
     TEMPO 2406/2408 4SM BR BKN005 
     FM240800 05005KT 2SM BR OVC005 
     FM241500 02007KT P6SM OVC012 
     FM241700 35010KT P6SM BKN025 
     BECMG 2422/2424 03008KT RMK NXT FCST BY 240600Z
       
TAF CYXX 232338Z 2400/2424 22010KT P6SM SCT040 
     FM240600 VRB03KT P6SM SKC 
     BECMG 2416/2418 24008KT RMK NXT FCST BY 240600Z
       
TAF CYXY 232339Z 2400/2424 01010KT P6SM SCT120 
     TEMPO 2400/2404 P6SM -SHRA SCT080 BKN120 
     FM240400 18007KT P6SM FEW200 RMK NXT FCST BY 240600Z
       
TAF CYYB 240138Z 2402/2414 03007KT P6SM -RA OVC060 
     FM240400 03007KT P6SM -SHRA OVC030 
     TEMPO 2404/2408 4SM -RA BR OVC020 
     FM240800 02010G20KT P6SM -RA OVC040 RMK NXT FCST BY 240800Z
       
TAF CYYC 240238Z 2403/2424 31008KT P6SM FEW080 
     TEMPO 2403/2404 P6SM -SHRA VCTS SCT040CB OVC080 
     BECMG 2403/2404 35015G25KT 
     FM240400 35025G40KT P6SM SCT020 BKN060 
     TEMPO 2404/2407 5SM -SHRA BR BKN020 OVC060 
     PROB40 2404/2407 VRB25G45KT 2SM TSRA BKN020 OVC060CB 
     FM240700 34015G30KT P6SM SCT020 BKN060 
     TEMPO 2407/2409 5SM -SHRA BR BKN020 BKN060 
     FM240900 32012KT P6SM FEW020 FEW060 
     BECMG 2410/2412 30008KT 
     FM241800 30008KT P6SM SCT060 
     BECMG 2419/2421 36015KT RMK NXT FCST BY 240600Z
       
TAF CYYD 240038Z 2401/2406 35012KT P6SM FEW012 BKN060 
     FM240300 32005KT P6SM FEW060 RMK NXT FCST WILL BE ISSUED AT 241345Z
       
TAF CYYE 240038Z 2401/2413 17008KT P6SM FEW060 
     PROB30 2410/2413 1SM BR BKN004 RMK NXT FCST BY 240700Z
       
TAF AMD CYYF 240231Z 2402/2413 34015G25KT P6SM FEW100 
     BECMG 2408/2410 34010KT RMK NXT FCST BY 240700Z
       
TAF CYYG 232338Z 2400/2412 VRB03KT P6SM FEW050 
     BECMG 2410/2412 34008KT RMK NXT FCST BY 240600Z
       
TAF CYYH 232338Z 2400/2412 30015KT P6SM SCT015 BKN050 
     TEMPO 2400/2403 4SM -RA BR BKN015 OVC050 
     FM240300 30015KT P6SM SCT005 OVC030 
     TEMPO 2403/2412 4SM -RA BR BKN005 OVC020 RMK NXT FCST BY 240600Z
       
TAF CYYJ 232338Z 2400/2424 09007KT P6SM FEW040 
     BECMG 2402/2404 14006KT 
     FM240800 27005KT P6SM SKC 
     BECMG 2416/2418 09006KT RMK NXT FCST BY 240600Z
       
TAF CYYL 240042Z 2401/2413 22008KT P6SM VCSH SCT040 BKN060 
     TEMPO 2401/2403 4SM TSRA BKN040CB 
     FM240800 18005KT P6SM SKC 
     FM241000 VRB03KT 1/2SM FG VV001 
     TEMPO 2410/2413 3SM BR SKC RMK FCST BASED ON AUTO OBS. NXT FCST BY 240700Z
       
TAF CYYN 232338Z 2400/2412 25012G22KT P6SM SKC 
     BECMG 2406/2408 25008KT 
     BECMG 2410/2411 29030G40KT 
     FM241100 29025G35KT P6SM BKN015 RMK FCST BASED ON AUTO OBS. NXT FCST BY 240600Z
       
TAF AMD CYYQ 240128Z 2401/2424 22012KT P6SM VCSH BKN060 
     TEMPO 2401/2406 4SM TSRA BKN060CB 
     BECMG 2403/2405 VRB03KT 
     FM240600 VRB03KT P6SM BKN060 
     BECMG 2407/2409 35015KT 
     FM240900 04015KT P6SM BKN030 
     TEMPO 2409/2411 4SM -SHRA BR 
     FM241100 04015KT 1/2SM -SHRA FG BKN004 
     TEMPO 2411/2415 3SM BR BKN010 
     FM241500 04015KT P6SM BKN012 
     TEMPO 2415/2424 3SM BR BKN006 RMK NXT FCST BY 240600Z
       
TAF CYYR 232338Z 2400/2424 28008KT P6SM -RA SCT015 OVC040 
     TEMPO 2400/2412 6SM -SHRA BR BKN015 OVC040 
     FM241200 31012G22KT P6SM -SHRA SCT020 OVC050 
     BECMG 2416/2418 31012G22KT 
     FM242200 35008KT P6SM OVC030 RMK NXT FCST BY 240600Z
       
TAF CYYT 232338Z 2400/2424 26015G25KT P6SM FEW025 
     FM241200 27020G30KT P6SM FEW060 RMK NXT FCST BY 240600Z
       
TAF CYYU 240138Z 2402/2414 05005KT P6SM SCT180 BKN240 
     FM240400 VRB03KT P6SM FEW200 RMK NXT FCST BY 240800Z
       
TAF CYYY 240141Z 2402/2414 25005KT P6SM FEW080 
     BECMG 2402/2404 35006KT RMK NXT FCST BY 240800Z
       
TAF AMD CYYZ 240035Z 2400/2506 10012KT P6SM BKN040 BKN120 
     TEMPO 2400/2402 P6SM -SHRA 
     PROB40 2400/2402 VRB15G25KT 1SM +TSRA BR OVC015CB 
     FM240200 05008KT P6SM FEW015 BKN030 
     TEMPO 2402/2408 6SM -SHRA BR OVC015 
     FM240800 03008KT 5SM -SHRA BR OVC012 
     PROB30 2408/2413 2SM TSRA BR BKN008 OVC015CB 
     FM241500 36010KT P6SM OVC015 
     FM241800 01012KT P6SM -SHRA BKN020 
     FM242200 01012KT P6SM BKN025 RMK NXT FCST BY 240300Z
       
TAF CYZF 232338Z 2400/2424 29008KT P6SM FEW050 SCT240 
     BECMG 2404/2406 21008KT 
     FM240800 21008KT P6SM SCT050 BKN080 
     BECMG 2413/2415 24008KT FEW050 
     FM242000 27010G20KT P6SM -SHRA BKN060 RMK NXT FCST BY 240600Z
       
TAF CYZH 240038Z 2401/2413 25012KT P6SM BKN080 OVC100 
     TEMPO 2401/2403 P6SM -SHRA 
     FM240300 28012KT P6SM FEW060 OVC160 
     FM241000 28012G22KT P6SM SCT015 BKN040 OVC120 
     TEMPO 2410/2413 P6SM -SHRA BKN015 BKN040 OVC120 RMK FCST BASED ON AUTO OBS. NXT FCST BY 240700Z
       
TAF CYZP 240038Z 2401/2413 14008KT P6SM BKN050 
     TEMPO 2401/2406 P6SM -SHRA SCT020 BKN050 
     FM240600 31006KT P6SM SCT020 BKN030 
     TEMPO 2406/2413 BKN020 OVC030 RMK FCST BASED ON AUTO OBS. NXT FCST BY 240700Z
       
TAF CYZS 240038Z 2401/2413 15015KT P6SM FEW090 SCT210 
     FM240400 14010KT P6SM BKN080 
     FM241000 14010KT P6SM -SHRA BKN080 RMK NXT FCST BY 240700Z
       
TAF CYZT 240038Z 2401/2413 32015G25KT P6SM FEW030 
     BECMG 2406/2408 30008KT 
     FM240900 36005KT P6SM SCT020 
     TEMPO 2409/2413 BKN020 RMK NXT FCST BY 240700Z
       
TAF CYZV 232338Z 2400/2424 32012KT P6SM SCT060 
     BECMG 2400/2402 33008KT 
     FM240200 33008KT P6SM FEW050 
     BECMG 2407/2409 29006KT 
     BECMG 2416/2418 22012KT RMK NXT FCST BY 240600Z
       
TAF CYZX 232338Z 2400/2424 VRB03KT P6SM FEW250 
     BECMG 2410/2412 BKN200 RMK NXT FCST BY 240600Z
       
TAF CYZY 240038Z 2401/2409 VRB03KT P6SM BKN040 RMK FCST BASED ON AUTO OBS. NXT FCST BY 240700Z
       
TAF AMD CYEK 240135Z 2401/2412 34015G25KT P6SM BKN070 
     FM240400 36010KT P6SM BKN040 RMK NXT FCST BY 240600Z
       
TAF CYBG 232338Z 2400/2424 31008KT P6SM FEW060 
     BECMG 2400/2402 VRB03KT 
     FM241500 09008KT P6SM FEW060 RMK NXT FCST BY 240600Z
       
TAF CYBC 240141Z 2402/2414 VRB03KT P6SM SKC 
     BECMG 2412/2414 06006KT RMK FCST BASED ON AUTO OBS. NXT FCST BY 240800Z
       
TAF CYBK 232338Z 2400/2412 32020G30KT P6SM SCT015 BKN040 
     TEMPO 2400/2403 BKN015 OVC040 
     FM240300 32015KT P6SM FEW040 
     BECMG 2404/2406 30010KT RMK NXT FCST BY 240600Z
       
TAF CZBF 231939Z 2320/2403 28010KT P6SM FEW050 
     BECMG 2323/2401 VRB03KT RMK NXT FCST WILL BE ISSUED AT 240845Z
       
TAF CYBR 232338Z 2400/2412 22010KT P6SM FEW050 
     BECMG 2401/2403 16012KT SKC 
     FM241000 16012KT P6SM BKN120 RMK NXT FCST BY 240600Z
       
TAF CYVT 240038Z 2401/2404 32006KT P6SM FEW060 FEW140 SCT250 RMK NXT FCST WILL BE ISSUED AT 241345Z
       
TAF CYDB 232339Z 2400/2412 11005KT P6SM FEW080 RMK NXT FCST BY 240600Z
       
TAF CYYC 240238Z 2403/2424 31008KT P6SM FEW080 
     TEMPO 2403/2404 P6SM -SHRA VCTS SCT040CB OVC080 
     BECMG 2403/2404 35015G25KT 
     FM240400 35025G40KT P6SM SCT020 BKN060 
     TEMPO 2404/2407 5SM -SHRA BR BKN020 OVC060 
     PROB40 2404/2407 VRB25G45KT 2SM TSRA BKN020 OVC060CB 
     FM240700 34015G30KT P6SM SCT020 BKN060 
     TEMPO 2407/2409 5SM -SHRA BR BKN020 BKN060 
     FM240900 32012KT P6SM FEW020 FEW060 
     BECMG 2410/2412 30008KT 
     FM241800 30008KT P6SM SCT060 
     BECMG 2419/2421 36015KT RMK NXT FCST BY 240600Z
       
TAF CYBW 232343Z 2400/2404 30008KT P6SM SCT080 BKN120 
     BECMG 2402/2404 35015G30KT RMK FCST BASED ON AUTO OBS. NXT FCST WILL BE ISSUED AT 241145Z
       
TAF AMD CYCB 240216Z 2402/2413 28012KT P6SM FEW015 SCT030 BKN120 
     TEMPO 2402/2413 FEW006 BKN030 RMK NXT FCST BY 240700Z
       
TAF CYBL 240038Z 2401/2404 31010G20KT P6SM FEW030 RMK NXT FCST WILL BE ISSUED AT 241445Z
       
TAF CYTE 240038Z 2401/2413 12010KT P6SM SCT110 RMK FCST BASED ON AUTO OBS. NXT FCST BY 240700Z
       
TAF CYCG 240038Z 2401/2404 18012KT P6SM SCT100 
     PROB30 2401/2404 VRB20G30KT 4SM TSRAGR BKN090CB RMK NXT FCST WILL BE ISSUED AT 241445Z
       
TAF CYYG 232338Z 2400/2412 VRB03KT P6SM FEW050 
     BECMG 2410/2412 34008KT RMK NXT FCST BY 240600Z
       
TAF AMD CYYQ 240128Z 2401/2424 22012KT P6SM VCSH BKN060 
     TEMPO 2401/2406 4SM TSRA BKN060CB 
     BECMG 2403/2405 VRB03KT 
     FM240600 VRB03KT P6SM BKN060 
     BECMG 2407/2409 35015KT 
     FM240900 04015KT P6SM BKN030 
     TEMPO 2409/2411 4SM -SHRA BR 
     FM241100 04015KT 1/2SM -SHRA FG BKN004 
     TEMPO 2411/2415 3SM BR BKN010 
     FM241500 04015KT P6SM BKN012 
     TEMPO 2415/2424 3SM BR BKN006 RMK NXT FCST BY 240600Z
       
TAF CZUM 240138Z 2402/2414 32012G22KT P6SM SCT015 BKN030 
     TEMPO 2402/2414 5SM -SHRA BR BKN015 BKN030 RMK FCST BASED ON AUTO OBS. NXT FCST BY 240800Z
       
TAF CYCY 240038Z 2401/2413 12010KT P6SM BKN080 
     FM240400 14010KT 1SM BR BKN004 RMK FCST BASED ON AUTO OBS. NXT FCST BY 240700Z
       
TAF CYOD 232338Z 2400/2424 VRB03KT P6SM SCT030 SCT120 
     BECMG 2401/2403 33012KT 
     FM240300 33012KT P6SM -SHRA SCT010 BKN030 OVC060 
     PROB30 2405/2408 VRB20G35KT 2SM TSRA BKN010 OVC030CB 
     FM240800 33015G25KT 3SM SHRA BR BKN010 OVC030 
     PROB30 2408/2417 VRB20G35KT 1SM +TSRA BR BKN008 OVC030CB 
     FM241700 31020G32KT 3SM SHRA BR BKN010 OVC030 
     PROB30 2417/2424 VRB30G45KT 1SM +TSRA BR BKN008 OVC030CB RMK NXT FCST BY 240600Z
       
TAF CYQQ 232339Z 2400/2424 34012G22KT P6SM FEW040 
     BECMG 2405/2407 34010KT 
     FM241800 36008KT P6SM FEW040 SCT200 RMK NXT FCST BY 240600Z
       
TAF CYZS 240038Z 2401/2413 15015KT P6SM FEW090 SCT210 
     FM240400 14010KT P6SM BKN080 
     FM241000 14010KT P6SM -SHRA BKN080 RMK NXT FCST BY 240700Z
       
TAF CYXC 240038Z 2401/2413 21012G22KT P6SM SCT080 
     TEMPO 2401/2405 P6SM -SHRA BKN080 
     PROB30 2401/2405 VRB25G35KT 5SM TSRAGR BKN070CB RMK NXT FCST BY 240700Z
       
TAF CYDN 232338Z 2400/2412 24008KT P6SM FEW040 
     BECMG 2401/2403 16012KT SKC 
     FM240800 16012KT P6SM BKN120 RMK FCST BASED ON AUTO OBS. NXT FCST BY 240600Z
       
TAF CYDA 232339Z 2400/2403 25008KT P6SM SCT060 RMK NXT FCST WILL BE ISSUED AT 241445Z
       
TAF CYDQ 240038Z 2401/2405 26015G25KT P6SM SCT040 
     TEMPO 2401/2405 P6SM -SHRA BKN040 RMK FCST BASED ON AUTO OBS. NXT FCST WILL BE ISSUED AT 241245Z
       
TAF CYDF 240138Z 2402/2414 24012G22KT P6SM SCT040 
     FM241200 25018G28KT P6SM BKN025 RMK NXT FCST BY 240800Z
       
TAF CYHD 240138Z 2402/2414 21006KT P6SM FEW230 RMK FCST BASED ON AUTO OBS. NXT FCST BY 240800Z
       
TAF CYEG 240238Z 2403/2424 35012G22KT P6SM -SHRA FEW007 BKN040 OVC090 
     TEMPO 2403/2404 4SM SHRA VCTS BR BKN012 OVC040 
     FM240400 35020G35KT P6SM SCT012 BKN080 
     TEMPO 2404/2408 4SM -SHRA BR BKN012 BKN080 
     BECMG 2405/2407 29010G20KT 
     FM240800 29010G20KT P6SM SCT012 OVC060 
     TEMPO 2408/2414 P6SM -SHRA BKN012 OVC060 
     FM241400 30015G30KT P6SM BKN015 
     FM241700 30018G28KT P6SM BKN025 RMK NXT FCST BY 240600Z
       
TAF CZVL 232343Z 2400/2412 04010KT P6SM BKN040 BKN140 
     TEMPO 2400/2402 5SM -SHRA BR VCTS BKN040CB BKN140 
     BECMG 2400/2402 35020G35KT 
     FM240200 35020G35KT P6SM -SHRA SCT012 OVC060 
     TEMPO 2402/2405 4SM SHRA BR BKN012 OVC060 
     PROB30 2402/2405 VRB20G35KT 2SM TSRA SCT006 OVC012CB 
     FM240500 28015G30KT P6SM -SHRA SCT012 BKN080 
     TEMPO 2405/2412 4SM -SHRA BR BKN012 BKN080 RMK FCST BASED ON AUTO OBS. NXT FCST BY 240600Z
       
TAF CYPY 232338Z 2400/2406 33008KT P6SM SCT020 BKN140 
     TEMPO 2400/2406 P6SM -SHRA BKN020 
     PROB40 2400/2404 3SM TSRA BKN015CB RMK FCST BASED ON AUTO OBS. NXT FCST WILL BE ISSUED AT 241145Z
       
TAF CYMM 240038Z 2401/2413 27008KT P6SM FEW080 BKN150 
     FM241200 34012G22KT P6SM FEW012 SCT040 OVC120 RMK FCST BASED ON AUTO OBS. NXT FCST BY 240700Z
       
TAF CYYE 240038Z 2401/2413 17008KT P6SM FEW060 
     PROB30 2410/2413 1SM BR BKN004 RMK NXT FCST BY 240700Z
       
TAF CYFS 232338Z 2400/2412 VRB03KT P6SM FEW150 
     FM240400 VRB03KT P6SM SCT080 
     TEMPO 2404/2408 P6SM -SHRA BKN080 RMK NXT FCST BY 240600Z
       
TAF CYSM 232338Z 2400/2412 29008KT P6SM SCT060 BKN100 
     TEMPO 2400/2402 P6SM -SHRA FEW020 BKN060 
     FM240200 30005KT P6SM BKN080 RMK NXT FCST BY 240600Z
       
TAF CYXJ 240038Z 2401/2413 25012KT P6SM SCT020 OVC040 
     TEMPO 2401/2406 P6SM -SHRA BKN020 OVC040 
     FM240900 32008KT P6SM FEW060 
     PROB30 2410/2413 1/2SM FG VV003 RMK NXT FCST BY 240700Z
       
TAF CYFC 232338Z 2400/2412 30006KT P6SM SKC 
     BECMG 2400/2402 VRB03KT RMK FCST BASED ON AUTO OBS. NXT FCST BY 240600Z
       
TAF CYQX 232338Z 2400/2424 28010G20KT P6SM SCT050 
     FM241400 28015G25KT P6SM BKN050 RMK NXT FCST BY 240600Z
       
TAF CYGP 240141Z 2402/2414 30007KT P6SM FEW040 RMK NXT FCST BY 240800Z
       
TAF CYGQ 240138Z 2402/2414 06005KT P6SM FEW060 RMK NXT FCST BY 240800Z
       
TAF CYHK 232338Z 2400/2412 32015KT 4SM -RA BR OVC005 
     TEMPO 2400/2403 P6SM NSW SCT005 OVC030 
     FM240300 30012KT P6SM SCT015 BKN030 
     TEMPO 2403/2412 BKN015 OVC030 RMK NXT FCST BY 240600Z
       
TAF CYYR 232338Z 2400/2424 28008KT P6SM -RA SCT015 OVC040 
     TEMPO 2400/2412 6SM -SHRA BR BKN015 OVC040 
     FM241200 31012G22KT P6SM -SHRA SCT020 OVC050 
     BECMG 2416/2418 31012G22KT 
     FM242200 35008KT P6SM OVC030 RMK NXT FCST BY 240600Z
       
TAF AMD CYQU 240048Z 2401/2413 01006KT P6SM SCT060 BKN120 OVC180 
     TEMPO 2401/2406 P6SM -SHRA VCTS BKN060CB BKN120 OVC180 
     BECMG 2401/2402 28015G25KT 
     FM240600 28012G22KT P6SM -SHRA SCT012 BKN040 OVC100 
     TEMPO 2406/2413 5SM -SHRA BR SCT006 BKN012 OVC040 RMK NXT FCST BY 240700Z
       
TAF CYZX 232338Z 2400/2424 VRB03KT P6SM FEW250 
     BECMG 2410/2412 BKN200 RMK NXT FCST BY 240600Z
       
TAF CYHZ 240238Z 2403/2424 VRB03KT P6SM SKC 
     FM241700 VRB03KT P6SM FEW050 SCT160 BKN220 
     FM242100 18008KT P6SM FEW050 OVC160 
     FM242300 19006KT P6SM FEW050 OVC100 RMK NXT FCST BY 240600Z
       
TAF CYUX 240038Z 2401/2413 16017KT P6SM FEW080 SCT210 
     FM241200 15017KT P6SM BKN080 RMK NXT FCST BY 240700Z
       
TAF AMD CYHM 240114Z 2401/2424 03012KT P6SM SCT008 BKN030 
     TEMPO 2401/2402 P6SM -SHRA OVC008 
     FM240200 05010KT 6SM -SHRA BR OVC008 
     TEMPO 2402/2404 P6SM NSW SCT008 OVC015 
     FM240400 04010KT 4SM BR BKN006 
     PROB40 2404/2413 2SM BR OVC005 
     FM241600 02008KT P6SM OVC012 
     FM241900 02012KT P6SM OVC025 RMK NXT FCST BY 240600Z
       
TAF CYGV 240141Z 2402/2414 27006KT P6SM SCT250 
     FM240600 30010KT P6SM SCT040 RMK FCST BASED ON AUTO OBS. NXT FCST BY 240800Z
       
TAF CYHY 232338Z 2400/2412 07008KT P6SM FEW060 SCT120 BKN220 
     BECMG 2401/2403 VRB03KT SKC RMK NXT FCST BY 240600Z
       
TAF CYOJ 240038Z 2401/2413 32008KT P6SM SCT008 BKN015 BKN120 
     TEMPO 2401/2406 5SM -SHRA BR BKN008 BKN015 BKN120 
     FM240600 34005KT P6SM SCT012 OVC040 
     TEMPO 2406/2409 5SM -SHRA BR BKN012 OVC040 
     FM240900 34005KT P6SM SCT060 RMK NXT FCST BY 240700Z
       
TAF CYEV 240038Z 2401/2413 19012KT P6SM SCT040 BKN100 
     TEMPO 2401/2409 P6SM -SHRA SCT020 BKN040 
     BECMG 2402/2404 29010KT 
     FM240900 32008KT P6SM -RA SCT020 BKN040 
     TEMPO 2409/2411 5SM -SHRA BR SCT006 BKN020 
     FM241100 VRB03KT P6SM -RA SCT006 BKN020 OVC040 
     TEMPO 2411/2413 4SM -SHRA BR BKN006 RMK NXT FCST BY 240700Z
       
TAF CYFB 232338Z 2400/2424 14005KT P6SM FEW030 BKN100 
     PROB30 2406/2410 1SM BR BKN005 RMK NXT FCST BY 240600Z
       
TAF CYKA 240038Z 2401/2413 32015G30KT P6SM SCT100 
     TEMPO 2401/2413 BKN100 RMK NXT FCST BY 240700Z
       
TAF CYYU 240138Z 2402/2414 05005KT P6SM SCT180 BKN240 
     FM240400 VRB03KT P6SM FEW200 RMK NXT FCST BY 240800Z
       
TAF CYLW 240038Z 2401/2413 22015G25KT P6SM FEW070 
     BECMG 2402/2404 35015KT RMK FCST BASED ON AUTO OBS. NXT FCST BY 240700Z
       
TAF CYQK 240138Z 2402/2414 21008KT P6SM FEW040 FEW240 RMK NXT FCST BY 240800Z
       
TAF CYKF 240138Z 2402/2414 09010KT P6SM BKN030 
     TEMPO 2402/2404 5SM BR OVC008 
     FM240400 06008KT P6SM OVC012 
     TEMPO 2404/2414 5SM -RA -DZ BR OVC008 
     PROB30 2406/2414 2SM BR BKN005 RMK FCST BASED ON AUTO OBS. NXT FCST BY 240800Z
       
TAF CYCO 240038Z 2401/2413 23010G20KT P6SM SCT025 BKN050 OVC080 
     TEMPO 2401/2404 P6SM -SHRA BKN020 
     FM240400 24012KT P6SM SCT040 BKN120 
     FM240800 24008KT P6SM -RA SCT015 OVC040 
     TEMPO 2408/2413 4SM -SHRA BR SCT008 OVC015 RMK NXT FCST BY 240700Z
       
TAF AMD CYVP 240150Z 2401/2412 03006KT 11/2SM BR BKN003 
     TEMPO 2401/2404 6SM BR SCT003 BKN240 
     BECMG 2402/2404 33005KT 
     FM240400 33005KT 6SM BR FEW005 SCT040 
     BECMG 2406/2408 25004KT 
     FM240800 25004KT P6SM BKN050 RMK NXT FCST BY 240600Z
       
TAF CYGL 232338Z 2400/2424 34005KT P6SM SCT060 
     BECMG 2404/2406 10005KT 
     FM241500 24007KT P6SM FEW100 RMK NXT FCST BY 240600Z
       
TAF CYVC 240042Z 2401/2413 25012KT P6SM FEW060 
     BECMG 2403/2405 16010KT 
     FM240600 11008KT P6SM BKN040 
     TEMPO 2406/2409 P6SM VCSH 
     FM240900 08012G22KT P6SM -SHRA BKN020 
     TEMPO 2409/2413 P6SM NSW BKN030 RMK NXT FCST BY 240700Z
       
TAF CYQL 232343Z 2400/2412 25015G25KT P6SM SCT100 SCT300 
     BECMG 2407/2409 34015G30KT 
     FM240900 34015G30KT P6SM BKN060 
     PROB30 2409/2411 VRB20G35KT 5SM TSRA SCT020 BKN060CB 
     FM241100 32010KT P6SM SCT060 RMK NXT FCST BY 240600Z
       
TAF AMD CYLL 240224Z 2402/2412 04008KT P6SM -SHRA BKN100 
     TEMPO 2402/2406 VRB20G30KT 5SM TSRA BKN050CB OVC100 
     BECMG 2404/2406 30025G40KT 
     FM240600 30025G40KT P6SM -SHRA SCT012 BKN040 OVC100 
     TEMPO 2406/2412 4SM SHRA BR SCT006 OVC012 
     PROB30 2406/2409 VRB25G40KT 2SM TSRAGR BKN006 OVC012CB RMK NXT FCST BY 240600Z
       
TAF AMD CYXU 240205Z 2402/2424 05006KT P6SM SCT020 BKN130 
     TEMPO 2402/2404 P6SM -SHRA OVC020 
     FM240400 06008KT 6SM BR SCT008 BKN012 
     TEMPO 2404/2406 4SM BR BKN006 
     FM240600 06005KT 6SM BR BKN006 
     TEMPO 2406/2408 4SM BR BKN005 
     FM240800 05005KT 2SM BR OVC005 
     FM241500 02007KT P6SM OVC012 
     FM241700 35010KT P6SM BKN025 
     BECMG 2422/2424 03008KT RMK NXT FCST BY 240600Z
       
TAF CYBX 240138Z 2402/2414 28012KT P6SM SCT020 BKN120 
     TEMPO 2402/2414 P6SM -SHRA OVC020 
     BECMG 2411/2413 29015G25KT RMK NXT FCST BY 240800Z
       
TAF CYYL 240042Z 2401/2413 22008KT P6SM VCSH SCT040 BKN060 
     TEMPO 2401/2403 4SM TSRA BKN040CB 
     FM240800 18005KT P6SM SKC 
     FM241000 VRB03KT 1/2SM FG VV001 
     TEMPO 2410/2413 3SM BR SKC RMK FCST BASED ON AUTO OBS. NXT FCST BY 240700Z
       
TAF CYZY 240038Z 2401/2409 VRB03KT P6SM BKN040 RMK FCST BASED ON AUTO OBS. NXT FCST BY 240700Z
       
TAF CYMA 232339Z 2400/2412 25012KT P6SM BKN100 RMK NXT FCST BY 240600Z
       
TAF CYXH 232343Z 2400/2412 24008KT P6SM FEW100 
     BECMG 2407/2409 32015G35KT BKN020 
     FM240900 32015G35KT P6SM BKN020 
     TEMPO 2409/2412 SCT020 
     BECMG 2410/2412 30012G25KT RMK NXT FCST BY 240600Z
       
TAF CYQM 232338Z 2400/2424 05006KT P6SM FEW080 BKN250 
     BECMG 2406/2408 VRB03KT 
     FM241700 07008KT P6SM FEW050 SCT240 
     FM242300 09006KT P6SM FEW060 BKN180 RMK NXT FCST BY 240600Z
       
TAF CYYY 240141Z 2402/2414 25005KT P6SM FEW080 
     BECMG 2402/2404 35006KT RMK NXT FCST BY 240800Z
       
TAF CYUL 240238Z 2403/2424 09007KT P6SM BKN120 
     BECMG 2405/2407 08010KT 
     FM240900 05010G20KT P6SM BKN080 
     TEMPO 2412/2414 P6SM -SHRA OVC030 
     FM241400 07012G22KT 6SM -SHRA BR BKN012 OVC025 
     PROB30 2415/2417 BKN008 OVC025 
     FM241700 08012G22KT 5SM -SHRA BR OVC008 
     FM242100 08015G25KT P6SM -SHRA SCT015 OVC040 RMK NXT FCST BY 240600Z
       
TAF CYMX 232338Z 2400/2424 VRB03KT P6SM SCT150 BKN240 
     FM240900 05010G20KT P6SM BKN100 
     PROB30 2409/2412 WS010/07030KT 
     FM241500 07012G22KT P6SM -SHRA OVC025 
     FM241700 07012G22KT 5SM -SHRA BR OVC010 
     PROB40 2417/2421 OVC007 
     FM242100 09015G25KT 6SM -SHRA BR BKN020 OVC070 RMK NXT FCST BY 240600Z
       
TAF CYHU 232338Z 2400/2424 06005KT P6SM FEW150 
     FM240900 04010G20KT P6SM BKN080 
     TEMPO 2412/2414 P6SM -SHRA OVC030 
     FM241400 07012G22KT P6SM -SHRA BKN010 OVC025 
     FM241600 08012G22KT 5SM -SHRA BR OVC015 
     FM242100 08015G25KT P6SM -SHRA FEW010 OVC040 RMK FCST BASED ON AUTO OBS. NXT FCST BY 240600Z
       
TAF CYMJ 232330Z 2400/2412 22012KT P6SM FEW110 
     BECMG 2400/2402 VRB03KT 
     FM240900 18010KT P6SM SKC 
     BECMG 2410/2412 23015KT RMK NXT FCST BY 240600Z
       
TAF CYCD 232338Z 2400/2404 02012KT P6SM FEW050 
     BECMG 2402/2404 30006KT RMK NXT FCST WILL BE ISSUED AT 241445Z
       
TAF CYNA 240141Z 2402/2414 28007KT P6SM SKC 
     FM240600 30012KT P6SM SCT040 RMK FCST BASED ON AUTO OBS. NXT FCST BY 240800Z
       
TAF CYVQ 232338Z 2400/2412 VRB03KT P6SM SCT040 BKN090 
     TEMPO 2400/2412 P6SM -SHRA BKN040 
     BECMG 2405/2407 28008KT RMK NXT FCST BY 240600Z
       
TAF CYQW 232338Z 2400/2412 12008KT P6SM FEW080 
     PROB30 2401/2404 2SM TSRA BKN030CB 
     FM240400 08012KT P6SM FEW080 
     PROB30 2404/2408 2SM TSRA BKN030CB 
     FM240800 VRB03KT P6SM SCT040 
     TEMPO 2408/2410 BKN040 
     BECMG 2408/2410 28025G35KT 
     FM241000 28025G35KT P6SM BKN015 RMK FCST BASED ON AUTO OBS. NXT FCST BY 240600Z
       
TAF CYYB 240138Z 2402/2414 03007KT P6SM -RA OVC060 
     FM240400 03007KT P6SM -SHRA OVC030 
     TEMPO 2404/2408 4SM -RA BR OVC020 
     FM240800 02010G20KT P6SM -RA OVC040 RMK NXT FCST BY 240800Z
       
TAF CYOW 240238Z 2403/2424 07007KT P6SM BKN100 
     TEMPO 2403/2409 P6SM -SHRA 
     FM240900 06010G20KT P6SM -SHRA OVC050 
     FM241200 07012G22KT P6SM -SHRA OVC040 
     FM241400 07012G22KT 6SM -SHRA BR OVC020 
     FM241700 07012G22KT 3SM -SHRA BR OVC006 
     FM242100 07015G25KT 6SM -SHRA BR OVC010 RMK NXT FCST BY 240600Z
       
TAF AMD CYPE 240147Z 2401/2413 26012KT P6SM FEW050 BKN180 
     TEMPO 2401/2406 5SM TSRA BKN050CB BKN150 
     FM240600 26006KT P6SM BKN040 
     TEMPO 2406/2410 P6SM -SHRA 
     BECMG 2406/2408 32010KT 
     FM241000 32010KT P6SM SCT015 BKN060 
     TEMPO 2410/2413 P6SM -SHRA BKN015 OVC060 RMK NXT FCST BY 240700Z
       
TAF AMD CYYF 240231Z 2402/2413 34015G25KT P6SM FEW100 
     BECMG 2408/2410 34010KT RMK NXT FCST BY 240700Z
       
TAF CYWA 232331Z 2400/2412 13006KT P6SM SCT020 BKN080 
     TEMPO 2400/2401 P6SM -SHRA BKN020 OVC080 
     FM240100 VRB03KT P6SM FEW050 BKN120 
     FM241100 05005KT P6SM -SHRA SCT020 OVC050 RMK FCST BASED ON AUTO OBS. NXT FCST BY 240600Z
       
TAF CYIO 240038Z 2401/2413 05005KT P6SM BKN060 RMK FCST BASED ON AUTO OBS. NXT FCST BY 240700Z
       
TAF CYZT 240038Z 2401/2413 32015G25KT P6SM FEW030 
     BECMG 2406/2408 30008KT 
     FM240900 36005KT P6SM SCT020 
     TEMPO 2409/2413 BKN020 RMK NXT FCST BY 240700Z
       
TAF CYPA 240042Z 2401/2413 18010KT P6SM SCT080 
     PROB30 2401/2404 2SM TSRA BKN030CB 
     FM240400 10015KT P6SM BKN080 
     TEMPO 2404/2409 P6SM VCSH 
     PROB30 2404/2409 2SM TSRA BKN030CB 
     FM240900 10015G25KT P6SM BKN080 
     TEMPO 2409/2413 5SM -SHRA BR BKN020 RMK NXT FCST BY 240700Z
       
TAF CYXS 240038Z 2401/2413 30008KT P6SM SCT050 BKN080 RMK FCST BASED ON AUTO OBS. NXT FCST BY 240700Z
       
TAF CYPR 240038Z 2401/2413 25005KT P6SM BKN060 
     TEMPO 2401/2406 SCT060 
     FM240600 28006KT P6SM SCT020 BKN040 
     TEMPO 2406/2413 BKN020 
     BECMG 2407/2409 09005KT RMK FCST BASED ON AUTO OBS. NXT FCST BY 240700Z
       
TAF CYPX 232338Z 2400/2412 24010KT P6SM SCT100 RMK FCST BASED ON AUTO OBS. NXT FCST BY 240600Z
       
TAF CYVM 240038Z 2401/2413 36005KT P6SM SCT140 RMK FCST BASED ON AUTO OBS. NXT FCST BY 240700Z
       
TAF CYQB 232338Z 2400/2424 23007KT P6SM FEW070 
     FM240100 VRB03KT P6SM FEW070 
     BECMG 2401/2403 03008KT 
     BECMG 2409/2411 07012G22KT 
     FM241600 07012KT P6SM SCT210 
     BECMG 2419/2421 06010G20KT RMK NXT FCST BY 240600Z
       
TAF CYQZ 240038Z 2401/2406 18005KT P6SM SCT060 BKN100 
     FM240200 33005KT P6SM SCT060 RMK FCST BASED ON AUTO OBS. NXT FCST WILL BE ISSUED AT 241145Z
       
TAF AMD CYRT 240208Z 2402/2412 33015G25KT P6SM SCT015 BKN080 
     TEMPO 2402/2404 P6SM -SHRA BKN008 OVC080 
     FM240400 33012KT P6SM BKN030 
     TEMPO 2404/2409 BKN020 
     FM240900 34012KT P6SM SCT030 RMK NXT FCST BY 240600Z
       
TAF AMD CYQF 240125Z 2401/2412 02005KT P6SM SCT030 BKN120 
     TEMPO 2401/2403 VRB15G30KT 3SM TSRA BKN030CB BKN120 
     BECMG 2401/2403 34020G35KT 
     FM240300 34020G35KT P6SM -SHRA SCT012 OVC060 
     TEMPO 2403/2407 4SM -SHRA BR BKN012 OVC060 
     PROB30 2403/2407 VRB20G35KT 4SM TSRA SCT006 OVC012 
     FM240700 29010G25KT P6SM FEW060 SCT120 RMK NXT FCST BY 240600Z
       
TAF CYQR 232338Z 2400/2424 14012G22KT P6SM SCT100 SCT300 
     FM240300 14012KT P6SM FEW100 
     FM241000 14012KT WS006/14035KT P6SM SCT060 
     BECMG 2412/2414 24015G25KT 
     BECMG 2414/2416 29020G30KT 
     FM241600 29020G30KT P6SM SCT015 SCT040 
     FM242000 29025G35KT P6SM SKC RMK NXT FCST BY 240600Z
       
TAF AMD CYRB 240115Z 2401/2424 12012KT 4SM -RA BR SCT006 BKN012 OVC030 
     TEMPO 2401/2414 11/2SM -RA BR BKN006 OVC012 
     BECMG 2404/2406 11006KT 
     FM241400 11015KT 2SM -RA BR SCT004 BKN006 OVC020 RMK NXT FCST BY 240600Z
       
TAF CYUY 232338Z 2400/2412 06006KT P6SM FEW030 BKN170 
     FM240300 VRB03KT P6SM SCT150 
     BECMG 2409/2411 07007KT RMK NXT FCST BY 240600Z
       
TAF CYSJ 232338Z 2400/2412 22006KT P6SM FEW080 
     BECMG 2400/2402 VRB03KT RMK NXT FCST BY 240600Z
       
TAF CYZP 240038Z 2401/2413 14008KT P6SM BKN050 
     TEMPO 2401/2406 P6SM -SHRA SCT020 BKN050 
     FM240600 31006KT P6SM SCT020 BKN030 
     TEMPO 2406/2413 BKN020 OVC030 RMK FCST BASED ON AUTO OBS. NXT FCST BY 240700Z
       
TAF CYXE 232338Z 2400/2424 26008KT P6SM FEW050 
     BECMG 2400/2402 18010KT 
     FM240400 23010KT P6SM SCT080 
     TEMPO 2404/2412 P6SM VCSH BKN080 
     BECMG 2410/2412 27025G40KT 
     FM241200 27025G35KT P6SM BKN012 
     FM241700 27025G35KT P6SM SCT025 
     BECMG 2420/2422 25015G25KT RMK NXT FCST BY 240600Z
       
TAF CYAM 240138Z 2402/2414 04007G17KT P6SM BKN070 
     FM241000 03010G20KT P6SM FEW070 
     BECMG 2411/2413 36007KT RMK NXT FCST BY 240800Z
       
TAF CYKL 240138Z 2402/2414 33012G22KT P6SM OVC015 
     TEMPO 2402/2414 OVC025 RMK FCST BASED ON AUTO OBS. NXT FCST BY 240800Z
       
TAF CYZV 232338Z 2400/2424 32012KT P6SM SCT060 
     BECMG 2400/2402 33008KT 
     FM240200 33008KT P6SM FEW050 
     BECMG 2407/2409 29006KT 
     BECMG 2416/2418 22012KT RMK NXT FCST BY 240600Z
       
TAF CYSC 232338Z 2400/2403 35005KT P6SM SKC RMK FCST BASED ON AUTO OBS. NXT FCST WILL BE ISSUED AT 241045Z
       
TAF CYXL 240138Z 2402/2414 25006KT P6SM FEW060 BKN230 RMK NXT FCST BY 240800Z
       
TAF CYZH 240038Z 2401/2413 25012KT P6SM BKN080 OVC100 
     TEMPO 2401/2403 P6SM -SHRA 
     FM240300 28012KT P6SM FEW060 OVC160 
     FM241000 28012G22KT P6SM SCT015 BKN040 OVC120 
     TEMPO 2410/2413 P6SM -SHRA BKN015 BKN040 OVC120 RMK FCST BASED ON AUTO OBS. NXT FCST BY 240700Z
       
TAF CYYD 240038Z 2401/2406 35012KT P6SM FEW012 BKN060 
     FM240300 32005KT P6SM FEW060 RMK NXT FCST WILL BE ISSUED AT 241345Z
       
TAF CYAY 240138Z 2402/2414 27018G28KT P6SM BKN040 
     TEMPO 2402/2412 P6SM -SHRA BKN020 BKN040 
     FM241200 27020G35KT P6SM BKN040 RMK FCST BASED ON AUTO OBS. NXT FCST BY 240800Z
       
TAF CYYT 232338Z 2400/2424 26015G25KT P6SM FEW025 
     FM241200 27020G30KT P6SM FEW060 RMK NXT FCST BY 240600Z
       
TAF CYJT 232338Z 2400/2424 27015G25KT P6SM SCT025 
     BECMG 2401/2403 27015KT 
     FM241200 28015G25KT P6SM BKN025 
     BECMG 2420/2422 28012KT SCT025 RMK NXT FCST BY 240600Z
       
TAF CYSB 240138Z 2402/2414 03007KT P6SM -SHRA OVC030 
     TEMPO 2402/2408 4SM -RA BR OVC020 
     FM240800 03010G20KT P6SM BKN070 RMK NXT FCST BY 240800Z
       
TAF CYYN 232338Z 2400/2412 25012G22KT P6SM SKC 
     BECMG 2406/2408 25008KT 
     BECMG 2410/2411 29030G40KT 
     FM241100 29025G35KT P6SM BKN015 RMK FCST BASED ON AUTO OBS. NXT FCST BY 240600Z
       
TAF CYQY 232338Z 2400/2412 VRB03KT P6SM SKC 
     BECMG 2402/2404 26006KT RMK NXT FCST BY 240600Z
       
TAF CYYH 232338Z 2400/2412 30015KT P6SM SCT015 BKN050 
     TEMPO 2400/2403 4SM -RA BR BKN015 OVC050 
     FM240300 30015KT P6SM SCT005 OVC030 
     TEMPO 2403/2412 4SM -RA BR BKN005 OVC020 RMK NXT FCST BY 240600Z
       
TAF CYXT 240038Z 2401/2413 18005KT P6SM SCT030 BKN050 
     BECMG 2407/2409 01005KT RMK NXT FCST BY 240700Z
       
TAF AMD CYQD 240045Z 2401/2413 24005KT P6SM VCSH BKN090 
     TEMPO 2401/2403 VRB20G30KT 4SM TSRA BKN040CB 
     FM240400 17010KT P6SM SCT090 
     TEMPO 2404/2413 BKN090 RMK NXT FCST BY 240700Z
       
TAF CYTH 240042Z 2401/2413 22010KT P6SM BKN080 
     TEMPO 2401/2403 VRB20G30KT 4SM TSRA BKN040CB 
     FM240900 18005KT P6SM SKC 
     FM241100 VRB03KT 1/2SM FG VV001 
     TEMPO 2411/2413 3SM BR SKC RMK NXT FCST BY 240700Z
       
TAF CYQT 240138Z 2402/2414 20005KT P6SM FEW060 RMK NXT FCST BY 240800Z
       
TAF CYTS 240138Z 2402/2414 01005KT P6SM BKN200 
     FM240600 VRB03KT P6SM FEW200 RMK NXT FCST BY 240800Z
       
TAF AMD CYKZ 240126Z 2401/2412 06008KT P6SM BKN030 
     TEMPO 2401/2403 4SM -SHRA BR OVC020 
     PROB40 2401/2403 VRB15G25KT 1SM +TSRA BR BKN015 OVC050CB 
     FM240300 05008KT P6SM FEW015 BKN030 
     TEMPO 2403/2408 6SM -SHRA BR OVC015 
     FM240800 03008KT 5SM -SHRA BR OVC012 
     PROB30 2408/2412 2SM TSRA BR BKN008 OVC015CB RMK NXT FCST BY 240600Z
       
TAF CYTZ 240138Z 2402/2502 06012KT P6SM SCT015 OVC030 
     TEMPO 2402/2409 6SM -SHRA BR OVC015 
     FM240900 04012KT P6SM -SHRA OVC012 
     PROB30 2409/2413 2SM TSRA BR BKN008 OVC012CB 
     FM241300 01010KT 6SM BR OVC008 
     BECMG 2413/2415 P6SM NSW OVC015 
     FM241800 34012KT P6SM -SHRA BKN020 
     FM242000 36012KT P6SM BKN025 RMK FCST BASED ON AUTO OBS. NXT FCST BY 240800Z
       
TAF AMD CYYZ 240035Z 2400/2506 10012KT P6SM BKN040 BKN120 
     TEMPO 2400/2402 P6SM -SHRA 
     PROB40 2400/2402 VRB15G25KT 1SM +TSRA BR OVC015CB 
     FM240200 05008KT P6SM FEW015 BKN030 
     TEMPO 2402/2408 6SM -SHRA BR OVC015 
     FM240800 03008KT 5SM -SHRA BR OVC012 
     PROB30 2408/2413 2SM TSRA BR BKN008 OVC015CB 
     FM241500 36010KT P6SM OVC015 
     FM241800 01012KT P6SM -SHRA BKN020 
     FM242200 01012KT P6SM BKN025 RMK NXT FCST BY 240300Z
       
TAF CYTR 232331Z 2400/2424 05008G18KT P6SM FEW060 BKN100 OVC220 
     FM240200 03010KT P6SM BKN050 
     TEMPO 2402/2412 P6SM -SHRA SCT020 OVC050 
     FM241200 02010G20KT 4SM -SHRA BR OVC015 
     PROB30 2412/2418 VRB15G25KT 2SM TSRA BR OVC012CB 
     FM241800 34010KT P6SM -SHRA SCT020 OVC040 RMK NXT FCST BY 240600Z
       
TAF CYRQ 240138Z 2402/2414 VRB03KT P6SM FEW200 
     TEMPO 2402/2404 1SM HZ 
     FM240800 05010G20KT P6SM BKN150 RMK FCST BASED ON AUTO OBS. NXT FCST BY 240800Z
       
TAF CYUB 240038Z 2401/2405 05007KT P6SM SCT030 BKN080 
     TEMPO 2401/2405 P6SM -SHRA BKN020 RMK NXT FCST WILL BE ISSUED AT 241445Z
       
TAF CYVO 232338Z 2400/2412 03005KT P6SM FEW040 BKN160 
     FM240300 VRB03KT P6SM SCT150 
     BECMG 2409/2411 06007KT RMK NXT FCST BY 240600Z
       
TAF CYVR 240238Z 2403/2506 27015G25KT P6SM SKC 
     FM240600 29012KT P6SM SKC RMK NXT FCST BY 240600Z
       
TAF CYYJ 232338Z 2400/2424 09007KT P6SM FEW040 
     BECMG 2402/2404 14006KT 
     FM240800 27005KT P6SM SKC 
     BECMG 2416/2418 09006KT RMK NXT FCST BY 240600Z
       
TAF CYWK 240138Z 2402/2414 32010KT P6SM BKN030 
     TEMPO 2402/2414 BKN020 
     BECMG 2412/2414 30012G22KT RMK NXT FCST BY 240800Z
       
TAF CYQH 232339Z 2400/2412 29012KT P6SM SCT060 
     TEMPO 2400/2402 P6SM -SHRA BKN060 RMK NXT FCST BY 240600Z
       
TAF CYXY 232339Z 2400/2424 01010KT P6SM SCT120 
     TEMPO 2400/2404 P6SM -SHRA SCT080 BKN120 
     FM240400 18007KT P6SM FEW200 RMK NXT FCST BY 240600Z
       
TAF CYQG 232338Z 2400/2424 VRB03KT P6SM BKN040 OVC280 
     TEMPO 2400/2401 P6SM -SHRA BKN020 
     PROB30 2400/2401 VRB15G25KT 1SM +TSRA BR OVC020CB 
     FM240200 VRB03KT P6SM FEW020 BKN040 
     PROB30 2406/2410 2SM BR BKN005 
     FM241000 32006KT 5SM BR BKN006 
     PROB40 2410/2413 2SM BR BKN005 
     FM241500 34008KT P6SM OVC012 
     FM241700 34010KT P6SM BKN025 
     BECMG 2419/2421 02012KT RMK NXT FCST BY 240600Z
       
TAF CYWG 232338Z 2400/2424 20008KT P6SM SCT040 
     FM240900 18008KT P6SM FEW060 
     FM241400 20012KT P6SM SCT050 BKN120 
     BECMG 2416/2418 20015G25KT RMK NXT FCST BY 240600Z
       
TAF CYQI 232338Z 2400/2412 32010KT P6SM FEW080 
     BECMG 2404/2406 VRB03KT RMK NXT FCST BY 240600Z
       
TAF CYZF 232338Z 2400/2424 29008KT P6SM FEW050 SCT240 
     BECMG 2404/2406 21008KT 
     FM240800 21008KT P6SM SCT050 BKN080 
     BECMG 2413/2415 24008KT FEW050 
     FM242000 27010G20KT P6SM -SHRA BKN060 RMK NXT FCST BY 240600Z
       
TAF CYQV 232338Z 2400/2406 16010KT P6SM FEW050 
     FM240500 16010KT P6SM SCT080 
     TEMPO 2405/2406 P6SM VCSH BKN080 RMK FCST BASED ON AUTO OBS. NXT FCST WILL BE ISSUED AT 241145Z